sensor_id;sensor_type;location;lat;lon;timestamp;temperature;humidity
19908;DHT22;10116;53.112;7.356;2023-08-17T00:01:26;27.40;99.90
19908;DHT22;10116;53.112;7.356;2023-08-17T00:03:51;27.40;99.90
19908;DHT22;10116;53.112;7.356;2023-08-17T00:06:17;27.40;99.90
19908;DHT22;10116;53.112;7.356;2023-08-17T00:08:42;27.40;99.90
19908;DHT22;10116;53.112;7.356;2023-08-17T00:11:08;27.40;99.90
19908;DHT22;10116;53.112;7.356;2023-08-17T00:13:34;27.40;99.90
19908;DHT22;10116;53.112;7.356;2023-08-17T00:16:00;27.40;99.90
19908;DHT22;10116;53.112;7.356;2023-08-17T00:18:25;27.40;99.90
19908;DHT22;10116;53.112;7.356;2023-08-17T00:20:51;27.40;99.90
19908;DHT22;10116;53.112;7.356;2023-08-17T00:23:17;27.40;99.90
19908;DHT22;10116;53.112;7.356;2023-08-17T00:25:43;27.40;99.90
19908;DHT22;10116;53.112;7.356;2023-08-17T00:28:08;27.40;99.90
19908;DHT22;10116;53.112;7.356;2023-08-17T00:30:34;27.30;99.90
19908;DHT22;10116;53.112;7.356;2023-08-17T00:33:02;27.40;99.90
19908;DHT22;10116;53.112;7.356;2023-08-17T00:35:28;27.40;99.90
19908;DHT22;10116;53.112;7.356;2023-08-17T00:37:53;27.40;99.90
19908;DHT22;10116;53.112;7.356;2023-08-17T00:40:19;27.30;99.90
19908;DHT22;10116;53.112;7.356;2023-08-17T00:42:45;27.40;99.90
19908;DHT22;10116;53.112;7.356;2023-08-17T00:45:10;27.30;99.90
19908;DHT22;10116;53.112;7.356;2023-08-17T00:47:36;27.40;99.90
19908;DHT22;10116;53.112;7.356;2023-08-17T00:50:02;27.30;99.90
19908;DHT22;10116;53.112;7.356;2023-08-17T00:52:29;27.30;99.90
19908;DHT22;10116;53.112;7.356;2023-08-17T00:54:56;27.40;99.90
19908;DHT22;10116;53.112;7.356;2023-08-17T00:57:23;27.30;99.90
19908;DHT22;10116;53.112;7.356;2023-08-17T00:59:49;27.30;99.90
19908;DHT22;10116;53.112;7.356;2023-08-17T01:02:17;27.30;99.90
19908;DHT22;10116;53.112;7.356;2023-08-17T01:04:43;27.30;99.90
19908;DHT22;10116;53.112;7.356;2023-08-17T01:07:08;27.30;99.90
19908;DHT22;10116;53.112;7.356;2023-08-17T01:09:34;27.30;99.90
19908;DHT22;10116;53.112;7.356;2023-08-17T01:14:54;27.30;99.90
19908;DHT22;10116;53.112;7.356;2023-08-17T01:17:27;27.30;99.90
19908;DHT22;10116;53.112;7.356;2023-08-17T01:19:55;27.30;99.90
19908;DHT22;10116;53.112;7.356;2023-08-17T01:22:21;27.30;99.90
19908;DHT22;10116;53.112;7.356;2023-08-17T01:24:48;27.30;99.90
19908;DHT22;10116;53.112;7.356;2023-08-17T01:27:13;27.30;99.90
19908;DHT22;10116;53.112;7.356;2023-08-17T01:29:39;27.20;99.90
19908;DHT22;10116;53.112;7.356;2023-08-17T01:32:12;27.30;99.90
19908;DHT22;10116;53.112;7.356;2023-08-17T01:34:47;27.20;99.90
19908;DHT22;10116;53.112;7.356;2023-08-17T01:37:14;27.30;99.90
19908;DHT22;10116;53.112;7.356;2023-08-17T01:39:44;27.20;99.90
19908;DHT22;10116;53.112;7.356;2023-08-17T01:42:13;27.20;99.90
19908;DHT22;10116;53.112;7.356;2023-08-17T01:44:39;27.30;99.90
19908;DHT22;10116;53.112;7.356;2023-08-17T01:47:05;27.20;99.90
19908;DHT22;10116;53.112;7.356;2023-08-17T01:49:31;27.20;99.90
19908;DHT22;10116;53.112;7.356;2023-08-17T01:51:56;27.30;99.90
19908;DHT22;10116;53.112;7.356;2023-08-17T01:54:22;27.20;99.90
19908;DHT22;10116;53.112;7.356;2023-08-17T01:56:49;27.20;99.90
19908;DHT22;10116;53.112;7.356;2023-08-17T01:59:14;27.20;99.90
19908;DHT22;10116;53.112;7.356;2023-08-17T02:01:40;27.20;99.90
19908;DHT22;10116;53.112;7.356;2023-08-17T02:04:06;27.20;99.90
19908;DHT22;10116;53.112;7.356;2023-08-17T02:06:32;27.20;99.90
19908;DHT22;10116;53.112;7.356;2023-08-17T02:08:58;27.20;99.90
19908;DHT22;10116;53.112;7.356;2023-08-17T02:11:24;27.20;99.90
19908;DHT22;10116;53.112;7.356;2023-08-17T02:13:50;27.20;99.90
19908;DHT22;10116;53.112;7.356;2023-08-17T02:16:15;27.20;99.90
19908;DHT22;10116;53.112;7.356;2023-08-17T02:18:41;27.10;99.90
19908;DHT22;10116;53.112;7.356;2023-08-17T02:21:06;27.10;99.90
19908;DHT22;10116;53.112;7.356;2023-08-17T02:23:32;27.20;99.90
19908;DHT22;10116;53.112;7.356;2023-08-17T02:25:57;27.20;99.90
19908;DHT22;10116;53.112;7.356;2023-08-17T02:28:23;27.20;99.90
19908;DHT22;10116;53.112;7.356;2023-08-17T02:30:49;27.20;99.90
19908;DHT22;10116;53.112;7.356;2023-08-17T02:33:19;27.20;99.90
19908;DHT22;10116;53.112;7.356;2023-08-17T02:35:50;27.10;99.90
19908;DHT22;10116;53.112;7.356;2023-08-17T02:38:16;27.10;99.90
19908;DHT22;10116;53.112;7.356;2023-08-17T02:40:42;27.10;99.90
19908;DHT22;10116;53.112;7.356;2023-08-17T02:43:07;27.10;99.90
19908;DHT22;10116;53.112;7.356;2023-08-17T02:45:36;27.10;99.90
19908;DHT22;10116;53.112;7.356;2023-08-17T02:48:02;27.10;99.90
19908;DHT22;10116;53.112;7.356;2023-08-17T02:50:28;27.10;99.90
19908;DHT22;10116;53.112;7.356;2023-08-17T02:52:53;27.10;99.90
19908;DHT22;10116;53.112;7.356;2023-08-17T02:55:19;27.10;99.90
19908;DHT22;10116;53.112;7.356;2023-08-17T02:57:44;27.10;99.90
19908;DHT22;10116;53.112;7.356;2023-08-17T03:00:10;27.10;99.90
19908;DHT22;10116;53.112;7.356;2023-08-17T03:02:36;27.10;99.90
19908;DHT22;10116;53.112;7.356;2023-08-17T03:05:03;27.00;99.90
19908;DHT22;10116;53.112;7.356;2023-08-17T03:07:28;27.00;99.90
19908;DHT22;10116;53.112;7.356;2023-08-17T03:09:54;27.10;99.90
19908;DHT22;10116;53.112;7.356;2023-08-17T03:12:19;27.00;99.90
19908;DHT22;10116;53.112;7.356;2023-08-17T03:14:45;27.00;99.90
19908;DHT22;10116;53.112;7.356;2023-08-17T03:17:10;27.10;99.90
19908;DHT22;10116;53.112;7.356;2023-08-17T03:19:36;27.00;99.90
19908;DHT22;10116;53.112;7.356;2023-08-17T03:22:02;27.00;99.90
19908;DHT22;10116;53.112;7.356;2023-08-17T03:24:27;27.00;99.90
19908;DHT22;10116;53.112;7.356;2023-08-17T03:26:53;27.00;99.90
19908;DHT22;10116;53.112;7.356;2023-08-17T03:29:19;27.10;99.90
19908;DHT22;10116;53.112;7.356;2023-08-17T03:31:44;27.00;99.90
19908;DHT22;10116;53.112;7.356;2023-08-17T03:34:10;27.10;99.90
19908;DHT22;10116;53.112;7.356;2023-08-17T03:36:35;27.10;99.90
19908;DHT22;10116;53.112;7.356;2023-08-17T03:39:01;27.20;99.90
19908;DHT22;10116;53.112;7.356;2023-08-17T03:41:26;27.30;99.90
19908;DHT22;10116;53.112;7.356;2023-08-17T03:43:52;27.30;99.90
19908;DHT22;10116;53.112;7.356;2023-08-17T03:46:18;27.30;99.90
19908;DHT22;10116;53.112;7.356;2023-08-17T03:48:43;27.30;99.90
19908;DHT22;10116;53.112;7.356;2023-08-17T03:51:09;27.30;99.90
19908;DHT22;10116;53.112;7.356;2023-08-17T03:53:34;27.40;99.90
19908;DHT22;10116;53.112;7.356;2023-08-17T03:56:00;27.30;99.90
19908;DHT22;10116;53.112;7.356;2023-08-17T03:58:25;27.30;99.90
19908;DHT22;10116;53.112;7.356;2023-08-17T04:00:52;27.40;99.90
19908;DHT22;10116;53.112;7.356;2023-08-17T04:03:19;27.40;99.90
19908;DHT22;10116;53.112;7.356;2023-08-17T04:05:44;27.40;99.90
19908;DHT22;10116;53.112;7.356;2023-08-17T04:08:10;27.40;99.90
19908;DHT22;10116;53.112;7.356;2023-08-17T04:10:36;27.40;99.90
19908;DHT22;10116;53.112;7.356;2023-08-17T04:13:01;27.40;99.90
19908;DHT22;10116;53.112;7.356;2023-08-17T04:15:27;27.40;99.90
19908;DHT22;10116;53.112;7.356;2023-08-17T04:17:52;27.40;99.90
19908;DHT22;10116;53.112;7.356;2023-08-17T04:20:18;27.40;99.90
19908;DHT22;10116;53.112;7.356;2023-08-17T04:22:44;27.30;99.90
19908;DHT22;10116;53.112;7.356;2023-08-17T04:25:10;27.30;99.90
19908;DHT22;10116;53.112;7.356;2023-08-17T04:27:35;27.30;99.90
19908;DHT22;10116;53.112;7.356;2023-08-17T04:30:01;27.30;99.90
19908;DHT22;10116;53.112;7.356;2023-08-17T04:32:26;27.30;99.90
19908;DHT22;10116;53.112;7.356;2023-08-17T04:34:52;27.30;99.90
19908;DHT22;10116;53.112;7.356;2023-08-17T04:37:18;27.30;99.90
19908;DHT22;10116;53.112;7.356;2023-08-17T04:39:43;27.30;99.90
19908;DHT22;10116;53.112;7.356;2023-08-17T04:42:09;27.30;99.90
19908;DHT22;10116;53.112;7.356;2023-08-17T04:44:35;27.30;99.90
19908;DHT22;10116;53.112;7.356;2023-08-17T04:47:01;27.30;99.90
19908;DHT22;10116;53.112;7.356;2023-08-17T04:49:27;27.30;99.90
19908;DHT22;10116;53.112;7.356;2023-08-17T04:51:53;27.30;99.90
19908;DHT22;10116;53.112;7.356;2023-08-17T04:54:19;27.30;99.90
19908;DHT22;10116;53.112;7.356;2023-08-17T04:56:44;27.30;99.90
19908;DHT22;10116;53.112;7.356;2023-08-17T04:59:10;27.30;99.90
19908;DHT22;10116;53.112;7.356;2023-08-17T05:01:36;27.30;99.90
19908;DHT22;10116;53.112;7.356;2023-08-17T05:04:03;27.30;99.90
19908;DHT22;10116;53.112;7.356;2023-08-17T05:06:29;27.30;99.90
19908;DHT22;10116;53.112;7.356;2023-08-17T05:08:54;27.30;99.90
19908;DHT22;10116;53.112;7.356;2023-08-17T05:11:20;27.30;99.90
19908;DHT22;10116;53.112;7.356;2023-08-17T05:13:45;27.30;99.90
19908;DHT22;10116;53.112;7.356;2023-08-17T05:16:11;27.30;99.90
19908;DHT22;10116;53.112;7.356;2023-08-17T05:18:36;27.30;99.90
19908;DHT22;10116;53.112;7.356;2023-08-17T05:21:02;27.30;99.90
19908;DHT22;10116;53.112;7.356;2023-08-17T05:23:28;27.40;99.90
19908;DHT22;10116;53.112;7.356;2023-08-17T05:25:53;27.40;99.90
19908;DHT22;10116;53.112;7.356;2023-08-17T05:28:19;27.50;99.90
19908;DHT22;10116;53.112;7.356;2023-08-17T05:30:45;27.40;99.90
19908;DHT22;10116;53.112;7.356;2023-08-17T05:33:10;27.50;99.90
19908;DHT22;10116;53.112;7.356;2023-08-17T05:35:36;27.50;99.90
19908;DHT22;10116;53.112;7.356;2023-08-17T05:38:01;27.50;99.90
19908;DHT22;10116;53.112;7.356;2023-08-17T05:40:30;27.50;99.90
19908;DHT22;10116;53.112;7.356;2023-08-17T05:42:56;27.50;99.90
19908;DHT22;10116;53.112;7.356;2023-08-17T05:45:21;27.50;99.90
19908;DHT22;10116;53.112;7.356;2023-08-17T05:47:47;27.50;99.90
19908;DHT22;10116;53.112;7.356;2023-08-17T05:50:13;27.50;99.90
19908;DHT22;10116;53.112;7.356;2023-08-17T05:52:41;27.50;99.90
19908;DHT22;10116;53.112;7.356;2023-08-17T05:55:06;27.50;99.90
19908;DHT22;10116;53.112;7.356;2023-08-17T05:57:32;27.50;99.90
19908;DHT22;10116;53.112;7.356;2023-08-17T05:59:58;27.50;99.90
19908;DHT22;10116;53.112;7.356;2023-08-17T06:02:23;27.50;99.90
19908;DHT22;10116;53.112;7.356;2023-08-17T06:04:49;27.50;99.90
19908;DHT22;10116;53.112;7.356;2023-08-17T06:07:14;27.50;99.90
19908;DHT22;10116;53.112;7.356;2023-08-17T06:09:40;27.50;99.90
19908;DHT22;10116;53.112;7.356;2023-08-17T06:12:06;27.50;99.90
19908;DHT22;10116;53.112;7.356;2023-08-17T06:14:33;27.50;99.90
19908;DHT22;10116;53.112;7.356;2023-08-17T06:16:59;27.50;99.90
19908;DHT22;10116;53.112;7.356;2023-08-17T06:19:25;27.50;99.90
19908;DHT22;10116;53.112;7.356;2023-08-17T06:21:51;27.50;99.90
19908;DHT22;10116;53.112;7.356;2023-08-17T06:24:17;27.50;99.90
19908;DHT22;10116;53.112;7.356;2023-08-17T06:26:43;27.40;99.90
19908;DHT22;10116;53.112;7.356;2023-08-17T06:29:09;27.40;99.90
19908;DHT22;10116;53.112;7.356;2023-08-17T06:31:35;27.40;99.90
19908;DHT22;10116;53.112;7.356;2023-08-17T06:34:00;27.40;99.90
19908;DHT22;10116;53.112;7.356;2023-08-17T06:36:30;27.40;99.90
19908;DHT22;10116;53.112;7.356;2023-08-17T06:38:56;27.40;99.90
19908;DHT22;10116;53.112;7.356;2023-08-17T06:41:21;27.40;99.90
19908;DHT22;10116;53.112;7.356;2023-08-17T06:43:47;27.40;99.90
19908;DHT22;10116;53.112;7.356;2023-08-17T06:46:12;27.40;99.90
19908;DHT22;10116;53.112;7.356;2023-08-17T06:48:38;27.40;99.90
19908;DHT22;10116;53.112;7.356;2023-08-17T06:51:04;27.40;99.90
19908;DHT22;10116;53.112;7.356;2023-08-17T06:53:30;27.40;99.90
19908;DHT22;10116;53.112;7.356;2023-08-17T06:55:56;27.40;99.90
19908;DHT22;10116;53.112;7.356;2023-08-17T06:58:21;27.40;99.90
19908;DHT22;10116;53.112;7.356;2023-08-17T07:00:47;27.40;99.90
19908;DHT22;10116;53.112;7.356;2023-08-17T07:03:13;27.40;99.90
19908;DHT22;10116;53.112;7.356;2023-08-17T07:05:38;27.40;99.90
19908;DHT22;10116;53.112;7.356;2023-08-17T07:08:04;27.40;99.90
19908;DHT22;10116;53.112;7.356;2023-08-17T07:10:30;27.50;99.90
19908;DHT22;10116;53.112;7.356;2023-08-17T07:12:55;27.50;99.90
19908;DHT22;10116;53.112;7.356;2023-08-17T07:15:21;27.50;99.90
19908;DHT22;10116;53.112;7.356;2023-08-17T07:17:47;27.50;99.90
19908;DHT22;10116;53.112;7.356;2023-08-17T07:20:12;27.50;99.90
19908;DHT22;10116;53.112;7.356;2023-08-17T07:22:38;27.50;99.90
19908;DHT22;10116;53.112;7.356;2023-08-17T07:25:04;27.50;99.90
19908;DHT22;10116;53.112;7.356;2023-08-17T07:27:30;27.50;99.90
19908;DHT22;10116;53.112;7.356;2023-08-17T07:29:55;27.40;99.90
19908;DHT22;10116;53.112;7.356;2023-08-17T07:32:21;27.30;99.90
19908;DHT22;10116;53.112;7.356;2023-08-17T07:34:47;27.30;99.90
19908;DHT22;10116;53.112;7.356;2023-08-17T07:37:13;27.30;99.90
19908;DHT22;10116;53.112;7.356;2023-08-17T07:39:38;27.30;99.90
19908;DHT22;10116;53.112;7.356;2023-08-17T07:42:04;27.30;99.90
19908;DHT22;10116;53.112;7.356;2023-08-17T07:44:30;27.30;99.90
19908;DHT22;10116;53.112;7.356;2023-08-17T07:46:57;27.40;99.90
19908;DHT22;10116;53.112;7.356;2023-08-17T07:49:23;27.30;99.90
19908;DHT22;10116;53.112;7.356;2023-08-17T07:51:49;27.40;99.90
19908;DHT22;10116;53.112;7.356;2023-08-17T07:54:15;27.40;99.90
19908;DHT22;10116;53.112;7.356;2023-08-17T07:56:41;27.40;99.90
19908;DHT22;10116;53.112;7.356;2023-08-17T07:59:06;27.40;99.90
19908;DHT22;10116;53.112;7.356;2023-08-17T08:01:32;27.40;99.90
19908;DHT22;10116;53.112;7.356;2023-08-17T08:03:57;27.30;99.90
19908;DHT22;10116;53.112;7.356;2023-08-17T08:06:23;27.30;99.90
19908;DHT22;10116;53.112;7.356;2023-08-17T08:08:49;27.30;99.90
19908;DHT22;10116;53.112;7.356;2023-08-17T08:11:14;27.40;99.90
19908;DHT22;10116;53.112;7.356;2023-08-17T08:13:40;27.30;99.90
19908;DHT22;10116;53.112;7.356;2023-08-17T08:16:06;27.30;99.90
19908;DHT22;10116;53.112;7.356;2023-08-17T08:18:31;27.30;99.90
19908;DHT22;10116;53.112;7.356;2023-08-17T08:20:57;27.30;99.90
19908;DHT22;10116;53.112;7.356;2023-08-17T08:23:22;27.30;99.90
19908;DHT22;10116;53.112;7.356;2023-08-17T08:25:48;27.30;99.90
19908;DHT22;10116;53.112;7.356;2023-08-17T08:28:14;27.30;99.90
19908;DHT22;10116;53.112;7.356;2023-08-17T08:30:39;27.30;99.90
19908;DHT22;10116;53.112;7.356;2023-08-17T08:33:05;27.20;99.90
19908;DHT22;10116;53.112;7.356;2023-08-17T08:35:30;27.20;99.90
19908;DHT22;10116;53.112;7.356;2023-08-17T08:37:58;27.20;99.90
19908;DHT22;10116;53.112;7.356;2023-08-17T08:40:28;27.20;99.90
19908;DHT22;10116;53.112;7.356;2023-08-17T08:42:54;27.20;99.90
19908;DHT22;10116;53.112;7.356;2023-08-17T08:45:21;27.20;99.90
19908;DHT22;10116;53.112;7.356;2023-08-17T08:47:48;27.20;99.90
19908;DHT22;10116;53.112;7.356;2023-08-17T08:50:18;27.20;99.90
19908;DHT22;10116;53.112;7.356;2023-08-17T08:52:59;27.20;99.90
19908;DHT22;10116;53.112;7.356;2023-08-17T08:55:29;27.20;99.90
19908;DHT22;10116;53.112;7.356;2023-08-17T08:57:56;27.10;99.90
19908;DHT22;10116;53.112;7.356;2023-08-17T09:00:22;27.10;99.90
19908;DHT22;10116;53.112;7.356;2023-08-17T09:02:49;27.10;99.90
19908;DHT22;10116;53.112;7.356;2023-08-17T09:05:15;27.10;99.90
19908;DHT22;10116;53.112;7.356;2023-08-17T09:07:42;27.10;99.90
19908;DHT22;10116;53.112;7.356;2023-08-17T09:10:09;27.10;99.90
19908;DHT22;10116;53.112;7.356;2023-08-17T09:12:35;27.10;99.90
19908;DHT22;10116;53.112;7.356;2023-08-17T09:15:01;27.00;99.90
19908;DHT22;10116;53.112;7.356;2023-08-17T09:17:27;27.10;99.90
19908;DHT22;10116;53.112;7.356;2023-08-17T09:19:53;27.00;99.90
19908;DHT22;10116;53.112;7.356;2023-08-17T09:22:42;27.00;99.90
19908;DHT22;10116;53.112;7.356;2023-08-17T09:25:09;27.00;99.90
19908;DHT22;10116;53.112;7.356;2023-08-17T09:27:39;27.00;99.90
19908;DHT22;10116;53.112;7.356;2023-08-17T09:30:09;27.00;99.90
19908;DHT22;10116;53.112;7.356;2023-08-17T09:32:35;27.00;99.90
19908;DHT22;10116;53.112;7.356;2023-08-17T09:35:02;27.00;99.90
19908;DHT22;10116;53.112;7.356;2023-08-17T09:37:28;27.00;99.90
19908;DHT22;10116;53.112;7.356;2023-08-17T09:39:55;27.00;99.90
19908;DHT22;10116;53.112;7.356;2023-08-17T09:42:21;27.00;99.90
19908;DHT22;10116;53.112;7.356;2023-08-17T09:44:48;26.90;99.90
19908;DHT22;10116;53.112;7.356;2023-08-17T09:47:15;27.00;99.90
19908;DHT22;10116;53.112;7.356;2023-08-17T09:49:47;27.00;99.90
19908;DHT22;10116;53.112;7.356;2023-08-17T09:52:13;27.00;99.90
19908;DHT22;10116;53.112;7.356;2023-08-17T09:54:40;27.00;99.90
19908;DHT22;10116;53.112;7.356;2023-08-17T09:57:06;26.90;99.90
19908;DHT22;10116;53.112;7.356;2023-08-17T09:59:33;27.00;99.90
19908;DHT22;10116;53.112;7.356;2023-08-17T10:01:59;26.90;99.90
19908;DHT22;10116;53.112;7.356;2023-08-17T10:04:26;27.00;99.90
19908;DHT22;10116;53.112;7.356;2023-08-17T10:07:03;27.00;99.90
19908;DHT22;10116;53.112;7.356;2023-08-17T10:09:38;27.00;99.90
19908;DHT22;10116;53.112;7.356;2023-08-17T10:12:10;27.10;99.90
19908;DHT22;10116;53.112;7.356;2023-08-17T10:14:39;27.20;99.90
19908;DHT22;10116;53.112;7.356;2023-08-17T10:17:16;27.20;99.90
19908;DHT22;10116;53.112;7.356;2023-08-17T10:19:50;27.20;99.90
19908;DHT22;10116;53.112;7.356;2023-08-17T10:24:49;27.30;99.90
19908;DHT22;10116;53.112;7.356;2023-08-17T10:27:16;27.30;99.90
19908;DHT22;10116;53.112;7.356;2023-08-17T10:29:43;27.30;99.90
19908;DHT22;10116;53.112;7.356;2023-08-17T10:32:10;27.30;99.90
19908;DHT22;10116;53.112;7.356;2023-08-17T10:34:36;27.30;99.90
19908;DHT22;10116;53.112;7.356;2023-08-17T10:37:02;27.30;99.90
19908;DHT22;10116;53.112;7.356;2023-08-17T10:39:29;27.40;99.90
19908;DHT22;10116;53.112;7.356;2023-08-17T10:41:56;27.40;99.90
19908;DHT22;10116;53.112;7.356;2023-08-17T10:44:41;27.40;99.90
19908;DHT22;10116;53.112;7.356;2023-08-17T10:47:25;27.40;99.90
19908;DHT22;10116;53.112;7.356;2023-08-17T10:49:56;27.40;99.90
19908;DHT22;10116;53.112;7.356;2023-08-17T10:52:30;27.40;99.90
19908;DHT22;10116;53.112;7.356;2023-08-17T10:54:56;27.40;99.90
19908;DHT22;10116;53.112;7.356;2023-08-17T11:00:13;27.40;99.90
19908;DHT22;10116;53.112;7.356;2023-08-17T11:02:42;27.30;99.90
19908;DHT22;10116;53.112;7.356;2023-08-17T11:05:10;27.40;99.90
19908;DHT22;10116;53.112;7.356;2023-08-17T11:07:42;27.30;99.90
19908;DHT22;10116;53.112;7.356;2023-08-17T11:12:45;27.40;99.90
19908;DHT22;10116;53.112;7.356;2023-08-17T11:15:11;27.40;99.90
19908;DHT22;10116;53.112;7.356;2023-08-17T11:17:37;27.30;99.90
19908;DHT22;10116;53.112;7.356;2023-08-17T11:20:03;27.40;99.90
19908;DHT22;10116;53.112;7.356;2023-08-17T11:22:29;27.30;99.90
19908;DHT22;10116;53.112;7.356;2023-08-17T11:24:55;27.30;99.90
19908;DHT22;10116;53.112;7.356;2023-08-17T11:27:21;27.30;99.90
19908;DHT22;10116;53.112;7.356;2023-08-17T11:29:47;27.30;99.90
19908;DHT22;10116;53.112;7.356;2023-08-17T11:32:16;27.30;99.90
19908;DHT22;10116;53.112;7.356;2023-08-17T11:34:42;27.30;99.90
19908;DHT22;10116;53.112;7.356;2023-08-17T11:37:11;27.30;99.90
19908;DHT22;10116;53.112;7.356;2023-08-17T11:39:36;27.30;99.90
19908;DHT22;10116;53.112;7.356;2023-08-17T11:42:03;27.30;99.90
19908;DHT22;10116;53.112;7.356;2023-08-17T11:44:29;27.30;99.90
19908;DHT22;10116;53.112;7.356;2023-08-17T11:46:54;27.30;99.90
19908;DHT22;10116;53.112;7.356;2023-08-17T11:49:20;27.40;99.90
19908;DHT22;10116;53.112;7.356;2023-08-17T11:51:47;27.40;99.90
19908;DHT22;10116;53.112;7.356;2023-08-17T11:54:13;27.40;99.90
19908;DHT22;10116;53.112;7.356;2023-08-17T11:56:38;27.50;99.90
19908;DHT22;10116;53.112;7.356;2023-08-17T11:59:11;27.50;99.90
19908;DHT22;10116;53.112;7.356;2023-08-17T12:01:44;27.50;99.90
19908;DHT22;10116;53.112;7.356;2023-08-17T12:04:10;27.50;99.90
19908;DHT22;10116;53.112;7.356;2023-08-17T12:06:39;27.60;99.90
19908;DHT22;10116;53.112;7.356;2023-08-17T12:09:07;27.60;99.90
19908;DHT22;10116;53.112;7.356;2023-08-17T12:11:33;27.60;99.90
19908;DHT22;10116;53.112;7.356;2023-08-17T12:13:59;27.60;99.90
19908;DHT22;10116;53.112;7.356;2023-08-17T12:16:24;27.60;99.90
19908;DHT22;10116;53.112;7.356;2023-08-17T12:18:53;27.60;99.90
19908;DHT22;10116;53.112;7.356;2023-08-17T12:21:20;27.60;99.90
19908;DHT22;10116;53.112;7.356;2023-08-17T12:23:47;27.60;99.90
19908;DHT22;10116;53.112;7.356;2023-08-17T12:26:22;27.60;99.90
19908;DHT22;10116;53.112;7.356;2023-08-17T12:28:49;27.60;99.90
19908;DHT22;10116;53.112;7.356;2023-08-17T12:31:21;27.60;99.90
19908;DHT22;10116;53.112;7.356;2023-08-17T12:33:46;27.60;99.90
19908;DHT22;10116;53.112;7.356;2023-08-17T12:36:12;27.60;99.90
19908;DHT22;10116;53.112;7.356;2023-08-17T12:38:38;27.50;99.90
19908;DHT22;10116;53.112;7.356;2023-08-17T12:41:07;27.50;99.90
19908;DHT22;10116;53.112;7.356;2023-08-17T12:43:33;27.50;99.90
19908;DHT22;10116;53.112;7.356;2023-08-17T12:45:58;27.50;99.90
19908;DHT22;10116;53.112;7.356;2023-08-17T12:48:24;27.50;99.90
19908;DHT22;10116;53.112;7.356;2023-08-17T12:50:49;27.50;99.90
19908;DHT22;10116;53.112;7.356;2023-08-17T12:53:15;27.50;99.90
19908;DHT22;10116;53.112;7.356;2023-08-17T12:55:40;27.50;99.90
19908;DHT22;10116;53.112;7.356;2023-08-17T12:58:09;27.50;99.90
19908;DHT22;10116;53.112;7.356;2023-08-17T13:00:35;27.50;99.90
19908;DHT22;10116;53.112;7.356;2023-08-17T13:03:01;27.50;99.90
19908;DHT22;10116;53.112;7.356;2023-08-17T13:05:26;27.50;99.90
19908;DHT22;10116;53.112;7.356;2023-08-17T13:07:52;27.50;99.90
19908;DHT22;10116;53.112;7.356;2023-08-17T13:10:17;27.50;99.90
19908;DHT22;10116;53.112;7.356;2023-08-17T13:12:43;27.50;99.90
19908;DHT22;10116;53.112;7.356;2023-08-17T13:15:09;27.50;99.90
19908;DHT22;10116;53.112;7.356;2023-08-17T13:17:35;27.50;99.90
19908;DHT22;10116;53.112;7.356;2023-08-17T13:20:01;27.50;99.90
19908;DHT22;10116;53.112;7.356;2023-08-17T13:22:26;27.50;99.90
19908;DHT22;10116;53.112;7.356;2023-08-17T13:24:52;27.50;99.90
19908;DHT22;10116;53.112;7.356;2023-08-17T13:27:17;27.50;99.90
19908;DHT22;10116;53.112;7.356;2023-08-17T13:29:43;27.50;99.90
19908;DHT22;10116;53.112;7.356;2023-08-17T13:32:09;27.50;99.90
19908;DHT22;10116;53.112;7.356;2023-08-17T13:34:34;27.50;99.90
19908;DHT22;10116;53.112;7.356;2023-08-17T13:37:00;27.50;99.90
19908;DHT22;10116;53.112;7.356;2023-08-17T13:39:27;27.40;99.90
19908;DHT22;10116;53.112;7.356;2023-08-17T13:41:53;27.40;99.90
19908;DHT22;10116;53.112;7.356;2023-08-17T13:44:19;27.40;99.90
19908;DHT22;10116;53.112;7.356;2023-08-17T13:46:44;27.50;99.90
19908;DHT22;10116;53.112;7.356;2023-08-17T13:49:10;27.50;99.90
19908;DHT22;10116;53.112;7.356;2023-08-17T13:51:35;27.40;99.90
19908;DHT22;10116;53.112;7.356;2023-08-17T13:54:01;27.50;99.90
19908;DHT22;10116;53.112;7.356;2023-08-17T13:56:27;27.50;99.90
19908;DHT22;10116;53.112;7.356;2023-08-17T13:58:52;27.50;99.90
19908;DHT22;10116;53.112;7.356;2023-08-17T14:01:18;27.50;99.90
19908;DHT22;10116;53.112;7.356;2023-08-17T14:03:45;27.50;99.90
19908;DHT22;10116;53.112;7.356;2023-08-17T14:06:10;27.50;99.90
19908;DHT22;10116;53.112;7.356;2023-08-17T14:08:36;27.50;99.90
19908;DHT22;10116;53.112;7.356;2023-08-17T14:11:02;27.50;99.90
19908;DHT22;10116;53.112;7.356;2023-08-17T14:13:27;27.50;99.90
19908;DHT22;10116;53.112;7.356;2023-08-17T14:15:53;27.50;99.90
19908;DHT22;10116;53.112;7.356;2023-08-17T14:18:21;27.50;99.90
19908;DHT22;10116;53.112;7.356;2023-08-17T14:20:47;27.60;99.90
19908;DHT22;10116;53.112;7.356;2023-08-17T14:23:13;27.60;99.90
19908;DHT22;10116;53.112;7.356;2023-08-17T14:25:38;27.60;99.90
19908;DHT22;10116;53.112;7.356;2023-08-17T14:28:04;27.60;99.90
19908;DHT22;10116;53.112;7.356;2023-08-17T14:30:32;27.60;99.90
19908;DHT22;10116;53.112;7.356;2023-08-17T14:32:58;27.60;99.90
19908;DHT22;10116;53.112;7.356;2023-08-17T14:35:24;27.60;99.90
19908;DHT22;10116;53.112;7.356;2023-08-17T14:37:49;27.60;99.90
19908;DHT22;10116;53.112;7.356;2023-08-17T14:40:15;27.50;99.90
19908;DHT22;10116;53.112;7.356;2023-08-17T14:42:42;27.50;99.90
19908;DHT22;10116;53.112;7.356;2023-08-17T14:45:08;27.50;99.90
19908;DHT22;10116;53.112;7.356;2023-08-17T14:47:34;27.60;99.90
19908;DHT22;10116;53.112;7.356;2023-08-17T14:50:00;27.60;99.90
19908;DHT22;10116;53.112;7.356;2023-08-17T14:52:25;27.60;99.90
19908;DHT22;10116;53.112;7.356;2023-08-17T14:54:51;27.60;99.90
19908;DHT22;10116;53.112;7.356;2023-08-17T14:57:17;27.50;99.90
19908;DHT22;10116;53.112;7.356;2023-08-17T14:59:42;27.50;99.90
19908;DHT22;10116;53.112;7.356;2023-08-17T15:02:08;27.50;99.90
19908;DHT22;10116;53.112;7.356;2023-08-17T15:04:35;27.50;99.90
19908;DHT22;10116;53.112;7.356;2023-08-17T15:07:04;27.50;99.90
19908;DHT22;10116;53.112;7.356;2023-08-17T15:09:35;27.50;99.90
19908;DHT22;10116;53.112;7.356;2023-08-17T15:12:00;27.50;99.90
19908;DHT22;10116;53.112;7.356;2023-08-17T15:14:26;27.50;99.90
19908;DHT22;10116;53.112;7.356;2023-08-17T15:16:51;27.50;99.90
19908;DHT22;10116;53.112;7.356;2023-08-17T15:19:17;27.50;99.90
19908;DHT22;10116;53.112;7.356;2023-08-17T15:21:42;27.50;99.90
19908;DHT22;10116;53.112;7.356;2023-08-17T15:24:08;27.50;99.90
19908;DHT22;10116;53.112;7.356;2023-08-17T15:26:33;27.50;99.90
19908;DHT22;10116;53.112;7.356;2023-08-17T15:28:59;27.50;99.90
19908;DHT22;10116;53.112;7.356;2023-08-17T15:31:25;27.50;99.90
19908;DHT22;10116;53.112;7.356;2023-08-17T15:33:50;27.50;99.90
19908;DHT22;10116;53.112;7.356;2023-08-17T15:36:16;27.50;99.90